Wills Point, Texas
Current Conditions -  °F | °C
As of 2:53 PM on Tuesday 27 Jan 2015 (Local Time) from KTRL Reporting Station
Clear Clear  
Wind Chill: 81°   Ceiling: Unl
Heat Index: 81°   Visibility: 10mi
Dew Point: 38°   Wind: 5mph
Humidity: 21%   Direction: 10°N
Pressure: 30.11"   Gusts: NA
Location:  32.71°N, 96.01°W
Report Text: KTRL 272053Z AUTO 01004KT 10SM CLR 27/03 A3011 RMK AO2 SLP194 T02720033 56021
Loading
Personal Weather Stations






























Interactive Weather Map New forecast layout! Learn more

10-Day Weather Forecast

Advertisements
Track Severe Weather on mobile